Time;durP1;ratioP1;P1;durP2;ratioP2;P2;SDS_P1;SDS_P2;PMS_P1;PMS_P2;Temp;Humidity;BMP_temperature;BMP_pressure;BME280_temperature;BME280_humidity;BME280_pressure;Samples;Min_cycle;Max_cycle;Signal;HPM_P1;HPM_P2
2021/11/07 00:13:12;;;;;;;63.87;28.77;;;;;;;;;;4434085;32;20694;-57
2021/11/07 00:15:00;;;;;;;48.23;25.53;;;;;;;;;;4411191;32;20268;-58
2021/11/07 00:17:29;;;;;;;45.73;21.33;;;;;;;;;;4434148;32;20215;-57
2021/11/07 00:20:17;;;;;;;43.60;20.93;;;;;;;;;;4433960;32;20209;-56
2021/11/07 00:23:07;;;;;;;32.73;19.60;;;;;;;;;;4418805;32;20251;-56
2021/11/07 00:25:50;;;;;;;36.60;20.03;;;;;;;;;;4432471;32;20647;-56
2021/11/07 00:28:25;;;;;;;31.47;17.23;;;;;;;;;;4433784;32;20299;-57
2021/11/07 00:31:19;;;;;;;39.13;20.37;;;;;;;;;;4433959;32;20522;-56
2021/11/07 00:41:23;;;;;;;35.03;18.00;;;;;;;;;;4433797;32;20727;-57
2021/11/07 00:46:27;;;;;;;32.40;17.03;;;;;;;;;;4433656;32;20229;-57
2021/11/07 00:49:32;;;;;;;28.93;16.53;;;;;;;;;;4433758;32;20576;-57
2021/11/07 00:52:04;;;;;;;31.67;15.83;;;;;;;;;;4432118;32;20221;-57
2021/11/07 00:54:43;;;;;;;29.30;14.70;;;;;;;;;;4433753;32;20228;-57
2021/11/07 00:57:25;;;;;;;30.53;10.97;;;;;;;;;;4433511;32;20236;-57
2021/11/07 01:02:34;;;;;;;29.93;16.37;;;;;;;;;;4433443;32;20726;-56
2021/11/07 01:05:03;;;;;;;32.67;15.63;;;;;;;;;;4433613;32;20652;-57
2021/11/07 01:07:28;;;;;;;39.07;17.67;;;;;;;;;;4433611;32;20217;-56
2021/11/07 01:09:56;;;;;;;28.70;13.70;;;;;;;;;;4433384;32;21201;-57
2021/11/07 01:12:22;;;;;;;22.33;12.90;;;;;;;;;;4433740;32;20232;-56
2021/11/07 01:14:50;;;;;;;28.60;13.57;;;;;;;;;;4433985;32;20648;-57
2021/11/07 01:17:16;;;;;;;22.37;11.07;;;;;;;;;;4433403;32;20686;-57
2021/11/07 01:19:42;;;;;;;17.97;9.70;;;;;;;;;;4433393;32;20287;-57
2021/11/07 01:22:13;;;;;;;23.57;10.87;;;;;;;;;;4432046;32;20657;-56
2021/11/07 01:24:42;;;;;;;24.77;12.60;;;;;;;;;;4432978;32;20273;-56
2021/11/07 01:27:17;;;;;;;18.60;11.47;;;;;;;;;;4433395;32;20220;-57
2021/11/07 01:29:47;;;;;;;25.10;12.53;;;;;;;;;;4433399;32;20261;-57
2021/11/07 01:32:15;;;;;;;26.83;12.80;;;;;;;;;;4433603;32;20279;-57
2021/11/07 01:34:57;;;;;;;22.50;13.27;;;;;;;;;;4432213;32;20466;-57
2021/11/07 01:37:26;;;;;;;32.07;13.10;;;;;;;;;;4433521;32;20305;-56
2021/11/07 01:40:26;;;;;;;30.50;13.13;;;;;;;;;;4433401;32;20271;-56
2021/11/07 01:42:53;;;;;;;24.73;12.97;;;;;;;;;;4430130;32;20384;-57
2021/11/07 01:45:24;;;;;;;28.97;14.67;;;;;;;;;;4432421;32;20201;-56
2021/11/07 01:47:54;;;;;;;42.10;19.80;;;;;;;;;;4433558;32;20335;-55
2021/11/07 01:50:20;;;;;;;49.23;21.37;;;;;;;;;;4433347;32;20208;-56
2021/11/07 01:52:52;;;;;;;43.37;20.77;;;;;;;;;;4433537;32;20248;-56
2021/11/07 01:55:19;;;;;;;30.13;16.90;;;;;;;;;;4433553;32;20299;-56
2021/11/07 01:57:49;;;;;;;35.07;17.83;;;;;;;;;;4433287;32;20213;-57
2021/11/07 02:00:23;;;;;;;24.80;15.43;;;;;;;;;;4432928;32;20285;-56
2021/11/07 02:02:49;;;;;;;27.50;14.93;;;;;;;;;;4433202;32;20584;-56
2021/11/07 02:05:14;;;;;;;36.07;16.87;;;;;;;;;;4432954;32;20347;-55
2021/11/07 02:07:40;;;;;;;27.83;15.83;;;;;;;;;;4433682;32;20247;-56
2021/11/07 02:10:09;;;;;;;29.37;15.67;;;;;;;;;;4432733;32;20840;-56
2021/11/07 02:12:36;;;;;;;32.80;18.33;;;;;;;;;;4435347;32;20335;-56
2021/11/07 02:15:05;;;;;;;31.03;17.07;;;;;;;;;;4435899;32;20256;-56
2021/11/07 02:17:31;;;;;;;32.67;16.80;;;;;;;;;;4434934;32;20220;-55
2021/11/07 02:19:58;;;;;;;25.70;14.00;;;;;;;;;;4435754;32;20276;-55
2021/11/07 02:22:23;;;;;;;28.33;16.60;;;;;;;;;;4436089;32;20356;-55
2021/11/07 02:24:49;;;;;;;27.73;16.07;;;;;;;;;;4432131;32;20288;-57
2021/11/07 02:27:15;;;;;;;59.47;29.67;;;;;;;;;;4435738;32;20224;-56
2021/11/07 02:29:41;;;;;;;81.13;42.97;;;;;;;;;;4435533;32;20271;-56
2021/11/07 02:32:07;;;;;;;61.73;30.23;;;;;;;;;;4435848;32;20605;-55
2021/11/07 02:34:33;;;;;;;54.10;27.03;;;;;;;;;;4435854;32;20364;-56
2021/11/07 02:36:59;;;;;;;46.77;24.53;;;;;;;;;;4435724;32;20225;-56
2021/11/07 02:39:26;;;;;;;41.40;22.17;;;;;;;;;;4435503;32;20558;-58
2021/11/07 02:41:52;;;;;;;44.73;23.20;;;;;;;;;;4436063;32;20225;-57
2021/11/07 02:44:37;;;;;;;41.87;23.37;;;;;;;;;;4435489;32;20657;-56
2021/11/07 02:47:05;;;;;;;36.97;19.43;;;;;;;;;;4435752;32;20298;-56
2021/11/07 02:49:31;;;;;;;30.33;17.20;;;;;;;;;;4435576;32;20223;-56
2021/11/07 02:51:59;;;;;;;35.73;16.87;;;;;;;;;;4435500;32;20221;-56
2021/11/07 02:54:26;;;;;;;29.97;15.50;;;;;;;;;;4435786;32;20593;-57
2021/11/07 02:56:55;;;;;;;33.00;16.10;;;;;;;;;;4435906;32;20688;-57
2021/11/07 02:59:24;;;;;;;33.40;14.60;;;;;;;;;;4434905;32;20224;-56
2021/11/07 03:01:52;;;;;;;35.50;16.80;;;;;;;;;;4435180;32;20545;-56
2021/11/07 03:04:18;;;;;;;36.87;16.60;;;;;;;;;;4435461;32;20224;-56
2021/11/07 03:06:43;;;;;;;33.97;17.57;;;;;;;;;;4435405;32;20296;-54
2021/11/07 03:09:24;;;;;;;31.80;17.10;;;;;;;;;;4434624;32;20720;-56
2021/11/07 03:11:52;;;;;;;32.60;16.87;;;;;;;;;;4434375;32;20241;-56
2021/11/07 03:14:26;;;;;;;38.87;17.07;;;;;;;;;;4434995;32;20206;-56
2021/11/07 03:16:52;;;;;;;32.93;16.00;;;;;;;;;;4435532;32;20603;-55
2021/11/07 03:19:20;;;;;;;40.10;22.80;;;;;;;;;;4434929;32;20217;-56
2021/11/07 03:21:46;;;;;;;37.77;20.00;;;;;;;;;;4434909;32;20631;-55
2021/11/07 03:24:13;;;;;;;26.33;14.70;;;;;;;;;;4431292;32;20832;-55
2021/11/07 03:26:39;;;;;;;27.43;13.73;;;;;;;;;;4434888;32;20248;-57
2021/11/07 03:29:07;;;;;;;21.77;13.00;;;;;;;;;;4434504;32;20294;-59
2021/11/07 03:34:08;;;;;;;32.90;15.80;;;;;;;;;;4434713;32;20317;-57
2021/11/07 03:36:45;;;;;;;29.40;16.67;;;;;;;;;;4435012;32;20335;-57
2021/11/07 03:39:11;;;;;;;38.87;19.67;;;;;;;;;;4433103;32;20247;-55
2021/11/07 03:41:38;;;;;;;36.47;17.73;;;;;;;;;;4434522;32;20229;-56
2021/11/07 03:44:05;;;;;;;38.33;18.93;;;;;;;;;;4434429;32;20267;-56
2021/11/07 03:46:30;;;;;;;38.83;18.20;;;;;;;;;;4433418;32;20257;-55
2021/11/07 03:48:56;;;;;;;31.57;17.17;;;;;;;;;;4434465;32;20640;-57
2021/11/07 03:51:24;;;;;;;35.37;17.37;;;;;;;;;;4435026;32;20229;-56
2021/11/07 03:53:49;;;;;;;30.77;17.70;;;;;;;;;;4434647;32;20677;-56
2021/11/07 03:56:15;;;;;;;28.60;17.10;;;;;;;;;;4433380;32;20264;-56
2021/11/07 03:58:42;;;;;;;37.10;17.20;;;;;;;;;;4434179;32;20358;-56
2021/11/07 04:01:08;;;;;;;34.37;15.97;;;;;;;;;;4433023;32;20232;-56
2021/11/07 04:03:33;;;;;;;28.37;16.17;;;;;;;;;;4435044;32;20288;-57
2021/11/07 04:05:59;;;;;;;29.27;15.97;;;;;;;;;;4432217;32;20225;-57
2021/11/07 04:08:24;;;;;;;28.47;17.53;;;;;;;;;;4434493;32;20271;-56
2021/11/07 04:10:50;;;;;;;38.23;20.03;;;;;;;;;;4433050;32;20327;-56
2021/11/07 04:13:16;;;;;;;31.43;19.80;;;;;;;;;;4434566;32;20364;-55
2021/11/07 04:15:42;;;;;;;54.80;24.90;;;;;;;;;;4434387;32;20354;-57
2021/11/07 04:18:07;;;;;;;50.53;24.53;;;;;;;;;;4434364;32;20667;-56
2021/11/07 04:20:33;;;;;;;51.10;20.00;;;;;;;;;;4434421;32;20575;-57
2021/11/07 04:22:59;;;;;;;38.43;19.53;;;;;;;;;;4434130;32;20221;-57
2021/11/07 04:25:25;;;;;;;34.40;17.70;;;;;;;;;;4430080;32;20287;-58
2021/11/07 04:27:51;;;;;;;40.60;20.73;;;;;;;;;;4434524;32;20248;-57
2021/11/07 04:30:17;;;;;;;64.30;28.17;;;;;;;;;;4433961;32;20292;-57
2021/11/07 04:32:42;;;;;;;53.63;30.00;;;;;;;;;;4434225;32;20255;-57
2021/11/07 04:35:09;;;;;;;69.30;32.77;;;;;;;;;;4432176;32;20311;-57
2021/11/07 04:37:40;;;;;;;69.50;41.00;;;;;;;;;;4434079;32;20224;-57
2021/11/07 04:40:07;;;;;;;74.77;40.63;;;;;;;;;;4433672;32;20215;-56
2021/11/07 04:42:33;;;;;;;72.17;41.13;;;;;;;;;;4434214;32;20699;-55
2021/11/07 04:44:58;;;;;;;78.00;41.60;;;;;;;;;;4433967;32;20291;-56
2021/11/07 04:47:23;;;;;;;68.93;41.80;;;;;;;;;;4434008;32;20723;-57
2021/11/07 04:49:51;;;;;;;55.33;33.53;;;;;;;;;;4419749;32;20722;-56
2021/11/07 04:52:17;;;;;;;63.27;35.10;;;;;;;;;;4433561;32;20286;-55
2021/11/07 04:54:42;;;;;;;51.60;28.53;;;;;;;;;;4433777;32;20704;-55
2021/11/07 04:57:08;;;;;;;44.50;25.20;;;;;;;;;;4433518;32;20224;-55
2021/11/07 04:59:33;;;;;;;46.97;24.47;;;;;;;;;;4433805;32;20341;-56
2021/11/07 05:01:59;;;;;;;55.30;27.07;;;;;;;;;;4433339;32;20228;-56
2021/11/07 05:04:25;;;;;;;44.47;23.27;;;;;;;;;;4433818;32;20271;-57
2021/11/07 05:06:51;;;;;;;44.87;26.10;;;;;;;;;;4433308;32;20289;-57
2021/11/07 05:09:18;;;;;;;51.57;26.30;;;;;;;;;;4432149;32;20233;-57
2021/11/07 05:11:44;;;;;;;52.47;28.07;;;;;;;;;;4433637;32;20292;-57
2021/11/07 05:14:10;;;;;;;44.57;25.50;;;;;;;;;;4433886;32;20284;-57
2021/11/07 05:16:35;;;;;;;49.13;26.57;;;;;;;;;;4433611;32;20216;-57
2021/11/07 05:19:03;;;;;;;48.33;26.37;;;;;;;;;;4433672;32;20279;-55
2021/11/07 05:21:29;;;;;;;40.93;25.00;;;;;;;;;;4433642;32;20225;-57
2021/11/07 05:23:54;;;;;;;61.50;27.27;;;;;;;;;;4429365;32;20641;-57
2021/11/07 05:26:19;;;;;;;43.63;25.67;;;;;;;;;;4433185;32;20289;-56
2021/11/07 05:28:45;;;;;;;41.70;23.30;;;;;;;;;;4433181;32;20689;-57
2021/11/07 05:31:11;;;;;;;48.27;24.40;;;;;;;;;;4433367;32;20293;-56
2021/11/07 05:33:36;;;;;;;42.43;24.13;;;;;;;;;;4433364;32;20276;-57
2021/11/07 05:36:03;;;;;;;61.43;26.70;;;;;;;;;;4433389;32;20295;-56
2021/11/07 05:38:28;;;;;;;40.70;24.43;;;;;;;;;;4433344;32;20427;-56
2021/11/07 05:40:54;;;;;;;49.30;24.60;;;;;;;;;;4433522;32;20303;-57
2021/11/07 05:43:21;;;;;;;60.33;27.83;;;;;;;;;;4433243;32;20680;-57
2021/11/07 05:45:50;;;;;;;66.37;33.47;;;;;;;;;;4435051;32;20320;-56
2021/11/07 05:48:16;;;;;;;143.70;61.67;;;;;;;;;;4435897;32;20216;-57
2021/11/07 05:50:44;;;;;;;115.23;55.83;;;;;;;;;;4434956;32;20244;-57
2021/11/07 05:53:10;;;;;;;86.47;38.57;;;;;;;;;;4436529;32;20205;-55
2021/11/07 05:55:36;;;;;;;64.73;30.80;;;;;;;;;;4436330;32;20725;-56
2021/11/07 05:58:02;;;;;;;67.33;29.53;;;;;;;;;;4435958;32;20217;-57
2021/11/07 06:00:29;;;;;;;53.83;28.90;;;;;;;;;;4436200;32;20217;-56
2021/11/07 06:02:54;;;;;;;56.37;30.47;;;;;;;;;;4436085;32;20327;-56
2021/11/07 06:05:20;;;;;;;46.10;26.70;;;;;;;;;;4432800;32;20279;-57
2021/11/07 06:07:47;;;;;;;59.93;24.80;;;;;;;;;;4419571;32;20287;-57
2021/11/07 06:10:14;;;;;;;42.50;21.87;;;;;;;;;;4420958;32;20226;-57
2021/11/07 06:12:40;;;;;;;39.83;21.70;;;;;;;;;;4420786;32;20256;-57
2021/11/07 06:15:06;;;;;;;38.93;20.60;;;;;;;;;;4421738;32;20284;-57
2021/11/07 06:17:32;;;;;;;32.00;21.07;;;;;;;;;;4435871;32;20224;-57
2021/11/07 06:19:58;;;;;;;28.77;18.40;;;;;;;;;;4434214;32;20308;-57
2021/11/07 06:22:23;;;;;;;32.40;17.63;;;;;;;;;;4435837;32;20296;-56
2021/11/07 06:24:49;;;;;;;23.87;16.33;;;;;;;;;;4435527;32;20711;-57
2021/11/07 06:27:15;;;;;;;34.50;19.10;;;;;;;;;;4435700;32;20279;-56
2021/11/07 06:29:42;;;;;;;28.70;17.93;;;;;;;;;;4435694;32;20280;-56
2021/11/07 06:32:08;;;;;;;37.40;20.33;;;;;;;;;;4435372;32;20654;-57
2021/11/07 06:34:37;;;;;;;32.50;20.10;;;;;;;;;;4436105;32;20715;-57
2021/11/07 06:37:06;;;;;;;31.33;18.87;;;;;;;;;;4435594;32;20250;-54
2021/11/07 06:39:32;;;;;;;42.07;22.07;;;;;;;;;;4435485;32;20197;-57
2021/11/07 06:41:58;;;;;;;46.57;24.30;;;;;;;;;;4435303;32;20213;-57
2021/11/07 06:44:23;;;;;;;51.43;24.83;;;;;;;;;;4433779;32;20357;-57
2021/11/07 06:46:49;;;;;;;46.73;29.47;;;;;;;;;;4435088;32;20350;-55
2021/11/07 06:49:15;;;;;;;53.77;29.27;;;;;;;;;;4435368;32;20322;-56
2021/11/07 06:51:45;;;;;;;59.27;29.93;;;;;;;;;;4435531;32;20272;-56
2021/11/07 06:54:12;;;;;;;59.57;29.87;;;;;;;;;;4433772;32;20331;-55
2021/11/07 06:56:38;;;;;;;63.50;31.87;;;;;;;;;;4434914;32;20735;-56
2021/11/07 06:59:06;;;;;;;54.63;30.37;;;;;;;;;;4435481;32;20802;-57
2021/11/07 07:01:32;;;;;;;59.87;33.63;;;;;;;;;;4435274;32;20879;-55
2021/11/07 07:03:58;;;;;;;46.87;29.13;;;;;;;;;;4435908;32;20216;-55
2021/11/07 07:06:23;;;;;;;42.93;25.80;;;;;;;;;;4425711;32;20323;-56
2021/11/07 07:08:58;;;;;;;43.80;24.47;;;;;;;;;;4420097;32;20352;-56
2021/11/07 07:11:43;;;;;;;42.70;24.70;;;;;;;;;;4425510;32;20317;-57
2021/11/07 07:14:13;;;;;;;42.27;23.27;;;;;;;;;;4435544;32;20251;-56
2021/11/07 07:19:49;;;;;;;46.00;26.63;;;;;;;;;;4415957;32;20217;-56
2021/11/07 07:35:26;;;;;;;34.50;20.27;;;;;;;;;;4435103;32;20348;-57
2021/11/07 07:37:51;;;;;;;35.83;23.17;;;;;;;;;;4434952;32;20225;-56
2021/11/07 07:40:17;;;;;;;41.00;23.00;;;;;;;;;;4434628;32;20344;-56
2021/11/07 07:42:43;;;;;;;42.50;20.90;;;;;;;;;;4434916;32;20252;-56
2021/11/07 07:45:09;;;;;;;33.70;21.53;;;;;;;;;;4434912;32;20785;-57
2021/11/07 07:47:35;;;;;;;44.23;25.53;;;;;;;;;;4434881;32;20278;-56
2021/11/07 07:50:02;;;;;;;41.23;23.63;;;;;;;;;;4434359;32;20292;-58
2021/11/07 07:52:28;;;;;;;51.17;24.67;;;;;;;;;;4434830;32;20256;-56
2021/11/07 07:54:56;;;;;;;54.10;25.07;;;;;;;;;;4434917;32;20329;-57
2021/11/07 07:57:22;;;;;;;44.80;24.77;;;;;;;;;;4434594;32;20263;-57
2021/11/07 07:59:48;;;;;;;43.23;24.50;;;;;;;;;;4434202;32;20386;-57
2021/11/07 08:02:13;;;;;;;43.23;26.03;;;;;;;;;;4433972;32;20332;-57
2021/11/07 08:04:39;;;;;;;43.60;23.13;;;;;;;;;;4432740;32;20315;-56
2021/11/07 08:07:04;;;;;;;39.43;21.47;;;;;;;;;;4417983;32;20578;-56
2021/11/07 08:09:30;;;;;;;43.73;22.70;;;;;;;;;;4414648;32;20284;-56
2021/11/07 08:11:56;;;;;;;38.53;22.17;;;;;;;;;;4417103;32;20732;-56
2021/11/07 08:14:22;;;;;;;40.47;20.87;;;;;;;;;;4416862;32;20217;-56
2021/11/07 08:16:48;;;;;;;37.40;20.13;;;;;;;;;;4428152;32;20605;-56
2021/11/07 08:19:15;;;;;;;32.53;19.17;;;;;;;;;;4430950;32;20609;-57
2021/11/07 08:21:41;;;;;;;35.63;19.50;;;;;;;;;;4430873;32;20332;-57
2021/11/07 08:24:12;;;;;;;56.30;22.53;;;;;;;;;;4430486;32;20349;-57
2021/11/07 08:26:42;;;;;;;42.67;21.63;;;;;;;;;;4433287;32;20722;-56
2021/11/07 08:29:10;;;;;;;37.80;20.23;;;;;;;;;;4433122;32;20193;-57
2021/11/07 08:31:37;;;;;;;28.67;18.97;;;;;;;;;;4433369;32;20301;-56
2021/11/07 08:34:05;;;;;;;29.67;16.60;;;;;;;;;;4433741;32;20196;-56
2021/11/07 08:37:17;;;;;;;26.30;16.83;;;;;;;;;;4432250;32;20325;-55
2021/11/07 08:39:20;;;;;;;32.30;18.23;;;;;;;;;;4424278;32;20674;-56
2021/11/07 08:41:55;;;;;;;35.73;16.90;;;;;;;;;;4433247;32;20315;-54
2021/11/07 09:00:31;;;;;;;39.43;17.73;;;;;;;;;;4431081;32;20683;-55
2021/11/07 09:06:13;;;;;;;32.27;21.07;;;;;;;;;;4411242;32;20600;-57
2021/11/07 09:08:40;;;;;;;30.00;19.63;;;;;;;;;;4417717;32;20201;-56
2021/11/07 09:11:06;;;;;;;36.20;17.17;;;;;;;;;;4417227;32;20685;-54
2021/11/07 09:13:34;;;;;;;34.93;16.97;;;;;;;;;;4417787;32;20236;-56
2021/11/07 09:16:00;;;;;;;35.70;15.50;;;;;;;;;;4424739;32;20224;-56
2021/11/07 09:18:26;;;;;;;43.57;21.07;;;;;;;;;;4433551;32;20355;-57
2021/11/07 09:21:04;;;;;;;27.08;16.45;;;;;;;;;;4434670;32;20661;-57
2021/11/07 09:23:42;;;;;;;36.33;16.87;;;;;;;;;;4436858;32;20197;-56
2021/11/07 09:26:22;;;;;;;32.65;17.48;;;;;;;;;;4434979;32;20254;-56
2021/11/07 09:34:14;;;;;;;30.70;13.37;;;;;;;;;;4435628;32;20544;-56
2021/11/07 09:36:42;;;;;;;23.42;14.43;;;;;;;;;;4436525;32;20232;-56
2021/11/07 09:44:19;;;;;;;27.23;14.82;;;;;;;;;;4436129;32;20272;-56
2021/11/07 09:46:51;;;;;;;28.33;14.90;;;;;;;;;;4436339;32;20287;-56
2021/11/07 09:49:26;;;;;;;19.77;13.13;;;;;;;;;;4435733;32;20634;-57
2021/11/07 09:52:01;;;;;;;23.70;13.50;;;;;;;;;;4436090;32;20266;-56
2021/11/07 09:54:29;;;;;;;26.83;14.43;;;;;;;;;;4434907;32;20282;-56
2021/11/07 09:56:56;;;;;;;29.25;13.07;;;;;;;;;;4435923;32;20374;-57
2021/11/07 09:59:23;;;;;;;28.83;13.80;;;;;;;;;;4435818;32;20211;-57
2021/11/07 10:01:50;;;;;;;25.42;14.57;;;;;;;;;;4435933;32;20314;-56
2021/11/07 10:04:17;;;;;;;23.27;13.98;;;;;;;;;;4435823;32;20624;-57
2021/11/07 10:06:52;;;;;;;24.70;12.55;;;;;;;;;;4424487;32;20308;-55
2021/11/07 10:09:38;;;;;;;19.17;14.00;;;;;;;;;;4419937;32;20483;-55
2021/11/07 10:12:08;;;;;;;32.50;13.55;;;;;;;;;;4420754;32;20247;-55
2021/11/07 10:14:52;;;;;;;24.95;13.48;;;;;;;;;;4420566;32;20277;-56
2021/11/07 10:17:31;;;;;;;26.95;14.48;;;;;;;;;;4434086;32;20244;-55
2021/11/07 10:20:24;;;;;;;29.30;14.30;;;;;;;;;;4435413;32;20223;-57
2021/11/07 10:23:17;;;;;;;24.48;13.30;;;;;;;;;;4435943;32;20614;-56
2021/11/07 10:26:01;;;;;;;29.23;14.25;;;;;;;;;;4435042;32;20229;-56
2021/11/07 10:28:35;;;;;;;23.30;14.45;;;;;;;;;;4433739;32;20236;-56
2021/11/07 10:31:37;;;;;;;26.40;14.15;;;;;;;;;;4434284;32;20612;-56
2021/11/07 10:40:15;;;;;;;28.45;15.45;;;;;;;;;;4432220;32;20581;-56
2021/11/07 10:53:39;;;;;;;24.70;13.85;;;;;;;;;;4435427;32;20247;-58
2021/11/07 10:56:08;;;;;;;25.37;13.68;;;;;;;;;;4435109;32;20217;-57
2021/11/07 10:58:38;;;;;;;31.50;15.25;;;;;;;;;;4433782;32;20621;-57
2021/11/07 11:01:10;;;;;;;27.37;14.35;;;;;;;;;;4434907;32;20693;-56
2021/11/07 11:03:48;;;;;;;30.83;17.23;;;;;;;;;;4435445;32;20193;-56
2021/11/07 11:06:14;;;;;;;36.92;17.50;;;;;;;;;;4426674;32;20346;-56
2021/11/07 11:08:45;;;;;;;24.63;13.68;;;;;;;;;;4418623;32;20353;-56
2021/11/07 11:11:27;;;;;;;25.85;14.65;;;;;;;;;;4419567;32;20304;-55
2021/11/07 11:27:58;;;;;;;37.53;16.87;;;;;;;;;;4429515;32;20300;-57
2021/11/07 11:33:24;;;;;;;31.33;15.15;;;;;;;;;;4432712;32;20233;-56
2021/11/07 11:38:29;;;;;;;26.45;14.65;;;;;;;;;;4434710;32;20197;-56
2021/11/07 11:41:19;;;;;;;27.25;14.90;;;;;;;;;;4434343;32;20694;-58
2021/11/07 11:43:48;;;;;;;21.50;13.25;;;;;;;;;;4433007;32;20799;-58
2021/11/07 11:46:43;;;;;;;31.98;14.87;;;;;;;;;;4434080;32;20374;-57
2021/11/07 12:00:41;;;;;;;21.40;12.18;;;;;;;;;;4433571;32;20343;-57
2021/11/07 12:03:20;;;;;;;20.27;13.02;;;;;;;;;;4430129;32;20257;-56
2021/11/07 12:11:43;;;;;;;21.95;11.90;;;;;;;;;;4433931;32;20615;-56
2021/11/07 12:14:20;;;;;;;23.33;11.93;;;;;;;;;;4434098;32;20285;-56
2021/11/07 12:16:59;;;;;;;20.20;12.70;;;;;;;;;;4434119;32;20324;-56
2021/11/07 12:19:43;;;;;;;20.98;11.95;;;;;;;;;;4432574;32;20307;-56
2021/11/07 12:22:17;;;;;;;21.92;12.43;;;;;;;;;;4433962;32;20217;-56
2021/11/07 12:24:46;;;;;;;27.58;13.68;;;;;;;;;;4433174;32;20231;-57
2021/11/07 12:27:21;;;;;;;19.98;11.68;;;;;;;;;;4434362;32;20224;-56
2021/11/07 12:29:49;;;;;;;27.65;12.43;;;;;;;;;;4433545;32;20212;-57
2021/11/07 12:32:14;;;;;;;25.45;11.43;;;;;;;;;;4433756;32;20814;-57
2021/11/07 12:35:15;;;;;;;28.73;12.35;;;;;;;;;;4433726;32;20279;-57
2021/11/07 12:40:49;;;;;;;16.92;10.45;;;;;;;;;;4433235;32;20691;-56
2021/11/07 12:43:30;;;;;;;20.33;9.20;;;;;;;;;;4433207;32;20208;-56
2021/11/07 12:46:04;;;;;;;19.92;10.27;;;;;;;;;;4433165;32;20814;-56
2021/11/07 12:48:49;;;;;;;20.08;10.25;;;;;;;;;;4432907;32;20192;-56
2021/11/07 12:51:38;;;;;;;23.90;10.73;;;;;;;;;;4432297;32;20759;-56
2021/11/07 12:54:13;;;;;;;23.65;12.30;;;;;;;;;;4432131;32;20583;-57
2021/11/07 12:56:51;;;;;;;22.58;10.63;;;;;;;;;;4432641;32;20618;-57
2021/11/07 12:59:30;;;;;;;22.37;10.88;;;;;;;;;;4432742;32;20292;-57
2021/11/07 13:02:02;;;;;;;22.10;11.15;;;;;;;;;;4433480;32;20240;-57
2021/11/07 13:04:47;;;;;;;28.23;12.60;;;;;;;;;;4433831;32;20314;-56
2021/11/07 13:07:44;;;;;;;19.95;12.88;;;;;;;;;;4418666;32;20281;-57
2021/11/07 13:10:15;;;;;;;19.17;13.45;;;;;;;;;;4417877;32;20495;-58
2021/11/07 13:12:46;;;;;;;32.13;12.70;;;;;;;;;;4418087;32;20312;-56
2021/11/07 13:34:34;;;;;;;26.08;14.40;;;;;;;;;;4408299;32;20538;-56
2021/11/07 13:37:03;;;;;;;18.85;12.55;;;;;;;;;;4432043;32;20275;-56
2021/11/07 13:39:32;;;;;;;24.95;11.80;;;;;;;;;;4430455;32;20572;-56
2021/11/07 13:42:11;;;;;;;21.35;12.07;;;;;;;;;;4430697;32;20357;-56
2021/11/07 13:44:59;;;;;;;19.95;13.38;;;;;;;;;;4430331;32;20217;-56
2021/11/07 13:47:43;;;;;;;31.77;15.32;;;;;;;;;;4430562;32;20284;-56
2021/11/07 13:50:13;;;;;;;27.35;13.13;;;;;;;;;;4431211;32;20200;-56
2021/11/07 13:52:41;;;;;;;28.10;15.02;;;;;;;;;;4432535;32;20250;-57
2021/11/07 13:55:19;;;;;;;29.33;12.20;;;;;;;;;;4430812;32;20283;-57
2021/11/07 13:57:45;;;;;;;29.02;13.52;;;;;;;;;;4432108;32;20312;-56
2021/11/07 14:00:14;;;;;;;35.63;14.55;;;;;;;;;;4430370;32;20346;-56
2021/11/07 14:02:46;;;;;;;25.40;15.32;;;;;;;;;;4416735;32;20267;-56
2021/11/07 14:05:12;;;;;;;29.60;15.98;;;;;;;;;;4418575;32;20266;-56
2021/11/07 14:07:39;;;;;;;37.10;16.77;;;;;;;;;;4434438;32;20229;-55
2021/11/07 14:10:14;;;;;;;37.03;15.73;;;;;;;;;;4434095;32;20354;-57
2021/11/07 14:12:54;;;;;;;31.83;15.23;;;;;;;;;;4432970;32;20243;-57
2021/11/07 14:15:34;;;;;;;27.55;14.25;;;;;;;;;;4433469;32;20283;-58
2021/11/07 14:18:29;;;;;;;32.58;16.15;;;;;;;;;;4433079;32;20303;-57
2021/11/07 14:21:06;;;;;;;28.95;15.23;;;;;;;;;;4431656;32;20606;-56
2021/11/07 14:26:26;;;;;;;31.80;15.95;;;;;;;;;;4417569;32;20229;-56
2021/11/07 14:29:02;;;;;;;37.30;18.70;;;;;;;;;;4419964;32;20612;-56
2021/11/07 14:31:37;;;;;;;25.27;15.30;;;;;;;;;;4418692;32;20363;-56
2021/11/07 14:34:07;;;;;;;30.10;17.75;;;;;;;;;;4419831;32;20259;-57
2021/11/07 14:37:00;;;;;;;31.20;16.12;;;;;;;;;;4419846;32;20259;-57
2021/11/07 14:42:06;;;;;;;24.80;13.95;;;;;;;;;;4419678;32;20308;-56
2021/11/07 14:44:58;;;;;;;27.95;15.43;;;;;;;;;;4419571;32;20262;-57
2021/11/07 14:47:30;;;;;;;32.90;14.52;;;;;;;;;;4419562;32;20335;-57
2021/11/07 14:53:16;;;;;;;25.05;14.27;;;;;;;;;;4419434;32;20718;-57
2021/11/07 14:56:09;;;;;;;27.73;14.02;;;;;;;;;;4419495;32;20197;-57
2021/11/07 15:01:59;;;;;;;31.55;15.95;;;;;;;;;;4427342;32;20708;-57
2021/11/07 15:04:50;;;;;;;28.30;13.40;;;;;;;;;;4423221;32;20312;-56
2021/11/07 15:07:41;;;;;;;23.25;14.23;;;;;;;;;;4419429;32;20229;-56
2021/11/07 15:16:05;;;;;;;54.35;26.30;;;;;;;;;;4434211;32;20273;-56
2021/11/07 15:21:39;;;;;;;48.47;26.75;;;;;;;;;;4434288;32;20614;-56
2021/11/07 15:24:02;;;;;;;31.77;19.75;;;;;;;;;;4430639;32;20264;-56
2021/11/07 15:26:36;;;;;;;44.20;21.33;;;;;;;;;;4419056;32;20255;-56
2021/11/07 15:29:05;;;;;;;38.67;23.25;;;;;;;;;;4418640;32;20194;-56
2021/11/07 15:31:32;;;;;;;46.15;26.50;;;;;;;;;;4418942;32;20225;-56
2021/11/07 15:34:00;;;;;;;45.92;27.05;;;;;;;;;;4405058;32;20279;-56
2021/11/07 15:36:29;;;;;;;58.97;34.00;;;;;;;;;;4418724;32;20740;-56
2021/11/07 15:39:07;;;;;;;46.83;24.65;;;;;;;;;;4418270;32;20309;-56
2021/11/07 15:41:34;;;;;;;50.47;33.40;;;;;;;;;;4418112;32;20258;-57
2021/11/07 15:44:05;;;;;;;47.55;25.67;;;;;;;;;;4417722;32;20197;-56
2021/11/07 15:46:32;;;;;;;45.75;24.63;;;;;;;;;;4418621;32;20229;-56
2021/11/07 15:48:58;;;;;;;62.28;35.03;;;;;;;;;;4417914;32;20204;-57
2021/11/07 16:04:10;;;;;;;85.85;45.05;;;;;;;;;;4433747;32;20201;-56
2021/11/07 16:17:34;;;;;;;103.38;58.63;;;;;;;;;;4423441;32;20585;-57
2021/11/07 16:20:01;;;;;;;115.30;62.15;;;;;;;;;;4433537;32;20248;-56
2021/11/07 16:22:27;;;;;;;103.05;58.22;;;;;;;;;;4433920;32;20660;-55
2021/11/07 16:24:53;;;;;;;109.25;56.08;;;;;;;;;;4433433;32;20271;-56
2021/11/07 16:27:23;;;;;;;95.47;54.95;;;;;;;;;;4433795;32;20620;-55
2021/11/07 16:29:50;;;;;;;100.60;56.78;;;;;;;;;;4433085;32;20192;-55
2021/11/07 16:32:26;;;;;;;109.07;59.97;;;;;;;;;;4433420;32;20587;-57
2021/11/07 16:35:13;;;;;;;89.87;50.13;;;;;;;;;;4433803;32;20185;-55
2021/11/07 16:37:46;;;;;;;87.30;49.07;;;;;;;;;;4433570;32;20231;-56
2021/11/07 16:40:22;;;;;;;89.20;46.40;;;;;;;;;;4433410;32;20192;-56
2021/11/07 16:42:48;;;;;;;99.80;51.07;;;;;;;;;;4433584;32;20255;-57
2021/11/07 16:45:16;;;;;;;96.33;52.40;;;;;;;;;;4433452;32;20745;-56
2021/11/07 16:47:46;;;;;;;101.00;51.80;;;;;;;;;;4433889;32;20289;-56
2021/11/07 16:50:13;;;;;;;114.27;61.67;;;;;;;;;;4433173;32;20185;-57
2021/11/07 16:52:43;;;;;;;128.57;67.23;;;;;;;;;;4432904;32;20303;-55
2021/11/07 16:55:12;;;;;;;138.27;68.17;;;;;;;;;;4433426;32;20206;-56
2021/11/07 16:57:38;;;;;;;109.37;65.07;;;;;;;;;;4431756;32;20289;-56
2021/11/07 17:00:15;;;;;;;123.43;67.90;;;;;;;;;;4431541;32;20243;-56
2021/11/07 17:02:49;;;;;;;100.47;53.53;;;;;;;;;;4423743;32;20764;-56
2021/11/07 17:05:23;;;;;;;83.47;49.33;;;;;;;;;;4431105;32;20705;-57
2021/11/07 17:10:36;;;;;;;86.27;46.37;;;;;;;;;;4431089;32;20262;-56
2021/11/07 17:13:04;;;;;;;86.68;44.10;;;;;;;;;;4432207;32;20241;-55
2021/11/07 17:18:13;;;;;;;68.97;40.15;;;;;;;;;;4433037;32;20255;-55
2021/11/07 17:23:14;;;;;;;79.00;43.50;;;;;;;;;;4433030;32;20748;-57
2021/11/07 17:25:46;;;;;;;54.83;33.38;;;;;;;;;;4427702;32;20237;-56
2021/11/07 17:28:30;;;;;;;69.47;39.63;;;;;;;;;;4433121;32;20228;-56
2021/11/07 17:33:37;;;;;;;89.40;48.72;;;;;;;;;;4432348;32;20205;-56
2021/11/07 17:55:06;;;;;;;47.77;24.33;;;;;;;;;;4436189;32;20985;-56
2021/11/07 17:57:35;;;;;;;53.90;26.83;;;;;;;;;;4436272;32;20229;-57
2021/11/07 18:00:06;;;;;;;58.27;28.07;;;;;;;;;;4435739;32;20209;-56
2021/11/07 18:02:32;;;;;;;49.63;30.07;;;;;;;;;;4435640;32;20232;-56
2021/11/07 18:05:01;;;;;;;60.27;33.37;;;;;;;;;;4435864;32;20204;-57
2021/11/07 18:07:49;;;;;;;71.37;31.93;;;;;;;;;;4435255;32;20375;-55
2021/11/07 18:10:15;;;;;;;79.78;35.65;;;;;;;;;;4435576;32;20335;-56
2021/11/07 18:12:44;;;;;;;55.40;34.95;;;;;;;;;;4435814;32;20221;-55
2021/11/07 18:15:11;;;;;;;62.37;35.83;;;;;;;;;;4435914;32;20277;-57
2021/11/07 18:17:37;;;;;;;53.13;33.03;;;;;;;;;;4436395;32;20228;-57
2021/11/07 18:20:05;;;;;;;58.83;33.47;;;;;;;;;;4435242;32;20235;-57